Time;durP1;ratioP1;P1;durP2;ratioP2;P2;SDS_P1;SDS_P2;PMS_P1;PMS_P2;Temp;Humidity;BMP_temperature;BMP_pressure;BME280_temperature;BME280_humidity;BME280_pressure;Samples;Min_cycle;Max_cycle;Signal;HPM_P1;HPM_P2
2021/06/09 00:01:26;;;;;;;6.68;6.07;;;19.70;92.60;;;;;;5110456;28;20103;-40
2021/06/09 00:03:51;;;;;;;6.60;6.00;;;19.60;92.70;;;;;;5109905;28;20457;-39
2021/06/09 00:06:17;;;;;;;6.65;5.95;;;19.60;92.70;;;;;;5109600;28;20114;-40
2021/06/09 00:08:42;;;;;;;6.35;5.75;;;19.60;92.80;;;;;;5109235;28;20558;-37
2021/06/09 00:11:08;;;;;;;6.32;5.72;;;19.60;92.80;;;;;;5109476;28;20028;-40
2021/06/09 00:13:34;;;;;;;6.10;5.60;;;19.60;92.90;;;;;;5109986;28;20047;-39
2021/06/09 00:16:09;;;;;;;6.30;5.70;;;19.50;93.00;;;;;;5108638;28;20837;-41
2021/06/09 00:18:35;;;;;;;6.13;5.53;;;19.50;93.10;;;;;;5110112;28;20100;-40
2021/06/09 00:21:01;;;;;;;7.45;6.18;;;19.40;93.10;;;;;;5108993;28;20029;-40
2021/06/09 00:23:27;;;;;;;6.57;5.97;;;19.40;93.20;;;;;;5109467;28;20051;-40
2021/06/09 00:25:55;;;;;;;7.07;6.38;;;19.40;93.30;;;;;;5109386;28;20457;-40
2021/06/09 00:28:20;;;;;;;6.05;5.45;;;19.40;93.40;;;;;;5109490;28;20371;-40
2021/06/09 00:30:46;;;;;;;7.20;6.50;;;19.40;93.40;;;;;;5108817;28;20015;-40
2021/06/09 00:33:12;;;;;;;8.02;7.22;;;19.30;93.30;;;;;;5108918;28;20028;-40
2021/06/09 00:35:38;;;;;;;7.00;6.30;;;19.40;93.30;;;;;;5108967;28;20027;-39
2021/06/09 00:38:05;;;;;;;7.40;6.55;;;19.40;93.30;;;;;;5108622;28;20027;-39
2021/06/09 00:40:32;;;;;;;7.90;7.20;;;19.40;93.20;;;;;;5109076;28;20015;-38
2021/06/09 00:43:16;;;;;;;8.63;7.68;;;19.40;93.20;;;;;;5109293;28;20549;-38
2021/06/09 00:45:45;;;;;;;7.93;7.18;;;19.50;93.20;;;;;;5108380;28;20055;-44
2021/06/09 00:48:14;;;;;;;7.90;7.10;;;19.50;93.20;;;;;;5108946;28;20448;-41
2021/06/09 00:50:41;;;;;;;7.75;7.05;;;19.50;93.20;;;;;;5109135;28;20023;-41
2021/06/09 00:55:51;;;;;;;8.48;6.80;;;19.40;93.30;;;;;;5108930;28;20101;-42
2021/06/09 00:58:18;;;;;;;8.15;7.38;;;19.40;93.30;;;;;;5108354;28;20572;-39
2021/06/09 01:00:43;;;;;;;7.47;6.78;;;19.40;93.40;;;;;;5109100;28;20115;-40
2021/06/09 01:03:09;;;;;;;8.38;7.57;;;19.40;93.50;;;;;;5108514;28;20111;-39
2021/06/09 01:05:35;;;;;;;7.43;6.70;;;19.40;93.60;;;;;;5108421;28;20467;-40
2021/06/09 01:08:06;;;;;;;7.93;7.22;;;19.40;93.60;;;;;;5108456;28;20028;-39
2021/06/09 01:10:32;;;;;;;8.23;7.43;;;19.30;93.70;;;;;;5108830;28;20039;-41
2021/06/09 01:13:00;;;;;;;7.88;7.07;;;19.30;93.80;;;;;;5107390;28;20023;-42
2021/06/09 01:15:27;;;;;;;7.78;7.05;;;19.20;93.80;;;;;;5109220;28;20487;-40
2021/06/09 01:17:53;;;;;;;8.00;7.20;;;19.20;93.90;;;;;;5108144;28;20218;-40
2021/06/09 01:20:19;;;;;;;7.78;6.97;;;19.20;94.00;;;;;;5108327;28;20062;-39
2021/06/09 01:22:45;;;;;;;7.80;7.05;;;19.10;94.10;;;;;;5108273;27;20027;-41
2021/06/09 01:25:11;;;;;;;8.32;7.50;;;19.10;94.20;;;;;;5108430;28;20035;-40
2021/06/09 01:27:38;;;;;;;9.35;6.80;;;19.10;94.20;;;;;;5107900;28;20016;-42
2021/06/09 01:30:10;;;;;;;7.53;6.82;;;19.10;94.30;;;;;;5108232;28;20027;-40
2021/06/09 01:32:35;;;;;;;9.73;7.55;;;19.10;94.30;;;;;;5108426;28;20103;-40
2021/06/09 01:35:03;;;;;;;7.80;7.00;;;19.10;94.40;;;;;;5107388;28;20114;-38
2021/06/09 01:37:32;;;;;;;7.97;7.28;;;19.00;94.40;;;;;;5108025;28;20027;-40
2021/06/09 01:39:59;;;;;;;8.05;7.25;;;19.00;94.50;;;;;;5107744;28;20477;-39
2021/06/09 01:42:26;;;;;;;7.80;6.93;;;19.00;94.60;;;;;;5107848;28;20043;-39
2021/06/09 01:44:52;;;;;;;8.95;7.53;;;18.90;94.60;;;;;;5106699;28;20028;-40
2021/06/09 01:47:18;;;;;;;7.97;7.28;;;18.90;94.70;;;;;;5107121;28;20053;-40
2021/06/09 01:49:47;;;;;;;7.65;6.93;;;18.90;94.80;;;;;;5107682;28;20038;-40
2021/06/09 01:52:17;;;;;;;7.75;6.95;;;18.80;94.90;;;;;;5108331;28;20430;-41
2021/06/09 01:54:44;;;;;;;7.72;7.03;;;18.80;95.00;;;;;;5107108;28;20023;-41
2021/06/09 01:57:12;;;;;;;8.30;7.30;;;18.80;95.00;;;;;;5108232;28;20055;-40
2021/06/09 01:59:37;;;;;;;7.65;6.93;;;18.80;95.10;;;;;;5107525;28;20053;-41
2021/06/09 02:02:03;;;;;;;8.20;7.40;;;18.70;95.20;;;;;;5106833;28;20118;-40
2021/06/09 02:04:29;;;;;;;9.38;7.57;;;18.70;95.20;;;;;;5107713;28;20012;-40
2021/06/09 02:06:55;;;;;;;8.50;7.70;;;18.70;95.30;;;;;;5107703;28;20443;-40
2021/06/09 02:09:21;;;;;;;8.98;7.55;;;18.70;95.40;;;;;;5107028;28;20012;-42
2021/06/09 02:11:48;;;;;;;8.80;7.90;;;18.60;95.50;;;;;;5107289;28;20154;-40
2021/06/09 02:14:16;;;;;;;8.85;7.97;;;18.60;95.60;;;;;;5107450;28;20028;-39
2021/06/09 02:16:46;;;;;;;10.07;8.30;;;18.60;95.60;;;;;;5106988;28;20016;-42
2021/06/09 02:19:12;;;;;;;9.50;8.50;;;18.60;95.60;;;;;;5107041;28;20047;-40
2021/06/09 02:21:40;;;;;;;10.40;8.50;;;18.60;95.70;;;;;;5107393;28;20019;-39
2021/06/09 02:24:07;;;;;;;10.02;9.02;;;18.60;95.70;;;;;;5106523;28;20028;-39
2021/06/09 02:26:33;;;;;;;9.68;8.68;;;18.60;95.80;;;;;;5107445;28;20027;-40
2021/06/09 02:29:03;;;;;;;9.88;8.88;;;18.60;95.80;;;;;;5106653;28;20015;-42
2021/06/09 02:31:30;;;;;;;10.02;9.00;;;18.60;95.90;;;;;;5107219;28;20027;-40
2021/06/09 02:33:59;;;;;;;10.13;9.10;;;18.60;95.90;;;;;;5106722;28;20071;-42
2021/06/09 02:36:29;;;;;;;10.35;8.85;;;18.60;96.00;;;;;;5105735;28;20035;-40
2021/06/09 02:38:57;;;;;;;10.13;9.13;;;18.60;96.10;;;;;;5107249;28;20057;-39
2021/06/09 02:41:23;;;;;;;10.35;9.35;;;18.50;96.20;;;;;;5107000;28;20145;-40
2021/06/09 02:43:49;;;;;;;10.93;9.15;;;18.50;96.30;;;;;;5107021;28;20483;-40
2021/06/09 02:46:21;;;;;;;11.18;9.65;;;18.50;96.30;;;;;;5106794;28;20035;-39
2021/06/09 02:48:53;;;;;;;10.30;9.30;;;18.40;96.40;;;;;;5086553;28;20092;-39
2021/06/09 02:51:21;;;;;;;10.38;9.38;;;18.40;96.50;;;;;;5102589;28;20035;-39
2021/06/09 02:54:11;;;;;;;10.27;9.27;;;18.40;96.80;;;;;;5106747;28;20032;-40
2021/06/09 02:56:58;;;;;;;10.60;9.52;;;18.40;96.60;;;;;;5107081;28;20069;-40
2021/06/09 02:59:29;;;;;;;10.75;9.75;;;18.30;96.60;;;;;;5110252;28;20072;-39
2021/06/09 03:02:05;;;;;;;11.30;10.30;;;18.30;96.70;;;;;;5110471;28;20019;-39
2021/06/09 03:04:43;;;;;;;13.35;10.30;;;18.30;96.80;;;;;;5110994;28;20063;-40
2021/06/09 03:07:23;;;;;;;10.73;9.73;;;18.30;96.80;;;;;;5110735;28;20056;-39
2021/06/09 03:10:09;;;;;;;11.13;9.60;;;18.20;96.80;;;;;;5110813;28;20126;-40
2021/06/09 03:12:51;;;;;;;11.88;10.52;;;18.20;96.90;;;;;;5109092;28;20436;-39
2021/06/09 03:15:30;;;;;;;11.93;10.73;;;18.20;97.00;;;;;;5111048;28;20031;-39
2021/06/09 03:17:57;;;;;;;11.95;10.43;;;18.20;97.00;;;;;;5106366;28;20019;-39
2021/06/09 03:20:46;;;;;;;10.95;9.85;;;18.20;97.00;;;;;;5110329;28;20490;-40
2021/06/09 03:23:16;;;;;;;12.05;10.73;;;18.20;97.10;;;;;;5107571;28;20375;-40
2021/06/09 03:25:57;;;;;;;11.63;10.52;;;18.10;97.10;;;;;;5109542;28;20474;-39
2021/06/09 03:28:37;;;;;;;11.82;10.63;;;18.10;97.20;;;;;;5108003;28;20049;-39
2021/06/09 03:31:06;;;;;;;11.75;10.55;;;18.10;97.30;;;;;;5109820;28;20781;-39
2021/06/09 03:33:42;;;;;;;11.13;10.02;;;18.10;97.30;;;;;;5110062;28;20024;-39
2021/06/09 03:36:24;;;;;;;12.52;11.23;;;18.10;97.40;;;;;;5110504;28;20040;-38
2021/06/09 03:39:00;;;;;;;12.63;11.32;;;18.10;97.50;;;;;;5108255;28;20093;-40
2021/06/09 03:41:34;;;;;;;13.63;11.07;;;18.10;97.50;;;;;;5110058;28;20036;-39
2021/06/09 03:44:02;;;;;;;11.55;10.35;;;18.10;97.50;;;;;;5109862;28;20035;-39
2021/06/09 03:46:28;;;;;;;12.38;11.13;;;18.10;97.50;;;;;;5109972;28;20682;-39
2021/06/09 03:48:57;;;;;;;12.30;11.10;;;18.10;97.60;;;;;;5108923;28;20486;-40
2021/06/09 03:51:24;;;;;;;12.27;11.07;;;18.10;97.50;;;;;;5110625;28;20054;-38
2021/06/09 03:53:52;;;;;;;12.50;11.20;;;18.10;97.60;;;;;;5109294;28;20107;-39
2021/06/09 03:56:18;;;;;;;12.80;11.50;;;18.10;97.60;;;;;;5109973;28;20042;-40
2021/06/09 03:58:45;;;;;;;14.30;11.68;;;18.10;97.60;;;;;;5109370;28;20028;-39
2021/06/09 04:01:12;;;;;;;12.68;11.25;;;18.10;97.60;;;;;;5109521;28;20027;-40
2021/06/09 04:03:40;;;;;;;12.30;11.10;;;18.10;97.60;;;;;;5109960;28;20080;-40
2021/06/09 04:06:08;;;;;;;12.70;11.50;;;18.20;97.70;;;;;;5109868;28;20028;-40
2021/06/09 04:08:36;;;;;;;14.30;11.73;;;18.20;97.70;;;;;;5108874;28;20135;-40
2021/06/09 04:11:02;;;;;;;13.25;11.77;;;18.20;97.70;;;;;;5108463;28;20042;-40
2021/06/09 04:13:32;;;;;;;13.23;11.82;;;18.20;97.70;;;;;;5109292;28;20042;-38
2021/06/09 04:16:01;;;;;;;12.98;11.68;;;18.20;97.70;;;;;;5108860;28;20023;-42
2021/06/09 04:18:29;;;;;;;12.68;11.48;;;18.20;97.70;;;;;;5109462;28;20023;-42
2021/06/09 04:20:57;;;;;;;12.63;11.32;;;18.20;97.70;;;;;;5109008;28;20043;-40
2021/06/09 04:23:23;;;;;;;12.57;11.27;;;18.30;97.80;;;;;;5108661;28;20031;-43
2021/06/09 04:25:48;;;;;;;12.60;11.13;;;18.30;97.80;;;;;;5108782;28;20396;-40
2021/06/09 04:28:19;;;;;;;12.13;10.90;;;18.30;97.80;;;;;;5109394;28;20015;-40
2021/06/09 04:30:44;;;;;;;12.23;11.02;;;18.30;97.80;;;;;;5108518;28;20103;-41
2021/06/09 04:33:11;;;;;;;12.52;11.35;;;18.30;97.80;;;;;;5109098;28;20106;-40
2021/06/09 04:35:39;;;;;;;12.75;11.48;;;18.30;97.90;;;;;;5109488;27;20538;-40
2021/06/09 04:38:10;;;;;;;11.70;10.60;;;18.30;97.90;;;;;;5108292;27;20023;-40
2021/06/09 04:40:36;;;;;;;13.85;11.48;;;18.40;97.90;;;;;;5109393;28;20033;-41
2021/06/09 04:43:01;;;;;;;13.27;11.98;;;18.30;97.90;;;;;;5108622;28;20114;-40
2021/06/09 04:45:28;;;;;;;13.07;11.75;;;18.40;97.90;;;;;;5108820;28;20118;-39
2021/06/09 04:47:54;;;;;;;13.07;11.70;;;18.50;97.90;;;;;;5108676;27;20073;-41
2021/06/09 04:50:25;;;;;;;13.18;11.88;;;18.50;97.80;;;;;;5108418;28;20027;-41
2021/06/09 04:52:52;;;;;;;14.45;12.77;;;18.60;97.80;;;;;;5088157;28;20059;-40
2021/06/09 04:55:19;;;;;;;14.57;13.02;;;18.60;97.80;;;;;;5102904;28;20043;-39
2021/06/09 04:57:45;;;;;;;14.68;13.18;;;18.60;97.80;;;;;;5107060;28;20024;-37
2021/06/09 05:00:14;;;;;;;14.60;13.00;;;18.70;97.70;;;;;;5108628;27;20023;-39
2021/06/09 05:02:40;;;;;;;12.93;11.48;;;18.70;97.70;;;;;;5108202;28;20049;-40
2021/06/09 05:05:06;;;;;;;13.55;12.15;;;18.70;97.70;;;;;;5108176;28;20028;-38
2021/06/09 05:07:32;;;;;;;13.02;11.65;;;18.80;97.70;;;;;;5108796;28;20024;-40
2021/06/09 05:09:57;;;;;;;12.85;11.63;;;18.80;97.70;;;;;;5108121;28;20073;-40
2021/06/09 05:12:29;;;;;;;12.75;11.27;;;18.90;97.60;;;;;;5108869;27;20035;-40
2021/06/09 05:15:16;;;;;;;11.93;10.73;;;18.90;97.60;;;;;;5107908;28;20020;-41
2021/06/09 05:17:47;;;;;;;12.20;10.95;;;19.00;97.60;;;;;;5108332;27;20054;-39
2021/06/09 05:20:28;;;;;;;12.52;11.32;;;19.00;97.60;;;;;;5107199;28;20502;-39
2021/06/09 05:23:05;;;;;;;13.02;11.73;;;19.10;97.60;;;;;;5108375;28;20039;-39
2021/06/09 05:25:32;;;;;;;12.43;11.23;;;19.10;97.60;;;;;;5107757;28;20027;-40
2021/06/09 05:28:01;;;;;;;12.68;11.48;;;19.20;97.60;;;;;;5107897;28;20567;-44
2021/06/09 05:30:27;;;;;;;13.52;12.13;;;19.20;97.80;;;;;;5108593;28;20026;-39
2021/06/09 05:32:55;;;;;;;13.73;12.38;;;19.30;97.50;;;;;;5107908;28;20148;-39
2021/06/09 05:35:21;;;;;;;13.45;12.15;;;19.40;97.50;;;;;;5108144;28;20027;-42
2021/06/09 05:37:48;;;;;;;13.85;12.40;;;19.40;97.40;;;;;;5107878;28;20126;-41
2021/06/09 05:40:19;;;;;;;14.55;13.23;;;19.50;97.40;;;;;;5107700;28;20047;-41
2021/06/09 05:42:46;;;;;;;13.73;12.43;;;19.60;97.40;;;;;;5104078;28;20115;-38
2021/06/09 05:45:13;;;;;;;14.55;13.05;;;19.70;97.40;;;;;;5107940;28;20027;-41
2021/06/09 05:47:45;;;;;;;14.35;12.90;;;19.70;97.30;;;;;;5107242;28;20026;-42
2021/06/09 05:50:20;;;;;;;14.52;13.10;;;19.80;97.40;;;;;;5107796;28;20030;-42
2021/06/09 05:52:46;;;;;;;14.85;13.00;;;19.80;97.40;;;;;;5107328;28;20386;-40
2021/06/09 05:55:17;;;;;;;15.25;13.75;;;19.90;97.40;;;;;;5107459;28;20034;-39
2021/06/09 05:57:44;;;;;;;15.32;13.93;;;19.90;97.40;;;;;;5107441;28;20031;-40
2021/06/09 06:00:11;;;;;;;14.63;13.13;;;20.00;97.30;;;;;;5107782;28;20023;-40
2021/06/09 06:02:52;;;;;;;16.25;14.65;;;20.10;97.20;;;;;;5106919;28;20081;-40
2021/06/09 06:05:19;;;;;;;17.23;15.50;;;20.10;97.20;;;;;;5086986;28;20028;-41
2021/06/09 06:07:46;;;;;;;16.10;14.50;;;20.20;97.10;;;;;;5101153;28;20633;-41
2021/06/09 06:10:13;;;;;;;15.38;13.77;;;20.30;97.10;;;;;;5107545;28;20047;-40
2021/06/09 06:12:40;;;;;;;15.85;13.73;;;20.40;97.00;;;;;;5107298;28;20391;-40
2021/06/09 06:15:11;;;;;;;15.95;14.45;;;20.40;97.00;;;;;;5106699;28;20026;-40
2021/06/09 06:17:42;;;;;;;16.77;15.07;;;20.50;96.90;;;;;;5107429;27;20016;-40
2021/06/09 06:20:29;;;;;;;17.40;15.70;;;20.50;96.90;;;;;;5106319;28;20539;-41
2021/06/09 06:22:55;;;;;;;16.50;14.80;;;20.60;96.90;;;;;;5106559;28;20012;-41
2021/06/09 06:25:24;;;;;;;17.40;14.55;;;20.70;97.10;;;;;;5104342;28;20114;-41
2021/06/09 06:27:51;;;;;;;17.38;15.57;;;20.70;96.80;;;;;;5105784;28;20098;-40
2021/06/09 06:30:20;;;;;;;18.42;16.52;;;20.70;96.80;;;;;;5105637;28;20459;-40
2021/06/09 06:32:49;;;;;;;17.25;15.00;;;20.80;96.80;;;;;;5105498;28;20024;-39
2021/06/09 06:35:20;;;;;;;16.63;14.93;;;20.80;96.80;;;;;;5106579;28;20077;-40
2021/06/09 06:37:48;;;;;;;16.90;14.27;;;20.80;96.80;;;;;;5107243;28;20051;-40
2021/06/09 06:40:23;;;;;;;17.50;15.73;;;20.80;96.80;;;;;;5105804;28;20023;-42
2021/06/09 06:42:52;;;;;;;17.52;14.93;;;20.70;96.90;;;;;;5106192;28;20110;-40
2021/06/09 06:45:20;;;;;;;17.70;16.00;;;20.80;97.20;;;;;;5094882;28;20035;-40
2021/06/09 06:47:46;;;;;;;16.95;15.25;;;20.70;96.90;;;;;;5106091;28;20463;-40
2021/06/09 06:50:17;;;;;;;18.17;15.75;;;20.70;96.90;;;;;;5102881;28;20034;-39
2021/06/09 06:52:44;;;;;;;17.23;15.23;;;20.80;97.00;;;;;;5104058;28;20325;-40
2021/06/09 06:55:13;;;;;;;17.10;15.30;;;20.80;97.00;;;;;;5105162;27;20095;-39
2021/06/09 06:57:39;;;;;;;19.80;17.80;;;20.80;96.90;;;;;;5106766;28;20582;-40
2021/06/09 07:00:11;;;;;;;15.82;13.75;;;20.90;96.90;;;;;;5106818;28;20023;-40
2021/06/09 07:02:39;;;;;;;17.65;15.80;;;21.00;96.90;;;;;;5107072;28;20027;-40
2021/06/09 07:05:07;;;;;;;19.38;17.38;;;21.10;96.80;;;;;;5106361;28;20114;-40
2021/06/09 07:07:34;;;;;;;17.25;15.48;;;21.20;96.80;;;;;;5107313;28;20028;-40
2021/06/09 07:10:07;;;;;;;16.55;14.90;;;21.20;96.70;;;;;;5105516;28;20100;-41
2021/06/09 07:12:35;;;;;;;14.70;13.30;;;21.30;96.60;;;;;;5086293;28;20505;-40
2021/06/09 07:15:08;;;;;;;17.05;15.45;;;21.50;96.50;;;;;;5101370;28;20179;-38
2021/06/09 07:17:42;;;;;;;13.63;12.27;;;21.50;96.30;;;;;;5107062;28;20511;-41
2021/06/09 07:20:11;;;;;;;15.27;13.73;;;21.60;96.10;;;;;;5105922;28;20043;-43
2021/06/09 07:22:38;;;;;;;11.60;10.50;;;21.70;96.00;;;;;;5107791;28;20020;-42
2021/06/09 07:25:06;;;;;;;10.35;9.25;;;21.80;95.80;;;;;;5106818;28;20377;-43
2021/06/09 07:27:36;;;;;;;12.30;11.20;;;21.90;95.60;;;;;;5106857;28;20543;-42
2021/06/09 07:30:07;;;;;;;13.40;12.10;;;22.00;95.40;;;;;;5106701;28;20034;-40
2021/06/09 07:32:38;;;;;;;16.27;14.60;;;22.10;95.30;;;;;;5107376;28;20047;-39
2021/06/09 07:35:05;;;;;;;13.05;11.75;;;22.20;95.10;;;;;;5106603;28;20131;-42
2021/06/09 07:37:34;;;;;;;13.40;12.00;;;22.20;95.00;;;;;;5106899;28;20114;-40
2021/06/09 07:40:02;;;;;;;11.70;10.55;;;22.30;94.90;;;;;;5105660;28;20069;-40
2021/06/09 07:42:30;;;;;;;12.45;11.25;;;22.30;94.80;;;;;;5107015;28;20039;-42
2021/06/09 07:45:08;;;;;;;14.68;12.77;;;22.40;94.80;;;;;;5108847;28;20012;-43
2021/06/09 07:47:39;;;;;;;17.23;15.30;;;22.40;94.80;;;;;;5110241;28;20085;-41
2021/06/09 07:50:07;;;;;;;16.55;14.90;;;22.40;94.80;;;;;;5110217;28;20477;-40
2021/06/09 07:52:36;;;;;;;15.60;14.10;;;22.40;94.70;;;;;;5110100;28;20114;-39
2021/06/09 07:55:04;;;;;;;13.32;11.88;;;22.50;94.80;;;;;;5109549;28;20110;-40
2021/06/09 07:57:33;;;;;;;14.07;12.45;;;22.50;94.70;;;;;;5110275;28;20161;-41
2021/06/09 08:00:01;;;;;;;14.15;12.85;;;22.60;94.60;;;;;;5109319;28;20031;-40
2021/06/09 08:02:26;;;;;;;12.95;11.65;;;22.60;94.50;;;;;;5109833;28;20035;-39
2021/06/09 08:04:52;;;;;;;14.48;13.18;;;22.60;94.40;;;;;;5109554;28;20024;-37
2021/06/09 08:07:18;;;;;;;11.85;10.25;;;22.60;94.30;;;;;;5109974;28;20028;-41
2021/06/09 08:09:44;;;;;;;14.05;12.68;;;22.70;94.20;;;;;;5109823;27;20350;-41
2021/06/09 08:12:10;;;;;;;15.60;14.10;;;22.70;94.10;;;;;;5109621;28;20034;-41
2021/06/09 08:14:36;;;;;;;15.95;14.35;;;22.80;94.10;;;;;;5109729;28;20035;-41
2021/06/09 08:17:02;;;;;;;15.75;14.25;;;22.80;94.00;;;;;;5109212;28;20412;-39
2021/06/09 08:19:28;;;;;;;14.30;12.95;;;22.80;93.70;;;;;;5110070;28;20044;-41
2021/06/09 08:21:54;;;;;;;18.60;16.80;;;22.90;93.60;;;;;;5108673;28;20074;-40
2021/06/09 08:24:20;;;;;;;15.82;14.27;;;22.90;93.60;;;;;;5110309;28;20065;-41
2021/06/09 08:26:46;;;;;;;16.88;15.27;;;23.00;93.30;;;;;;5109388;28;20023;-43
2021/06/09 08:29:12;;;;;;;14.18;12.88;;;23.00;93.10;;;;;;5108973;28;20020;-45
2021/06/09 08:31:38;;;;;;;12.10;10.98;;;23.10;93.00;;;;;;5109522;28;20138;-41
2021/06/09 08:34:06;;;;;;;13.88;12.57;;;23.10;92.90;;;;;;5109225;28;20046;-40
2021/06/09 08:36:33;;;;;;;15.15;13.65;;;23.10;92.80;;;;;;5109459;28;20035;-40
2021/06/09 08:38:59;;;;;;;12.18;11.07;;;23.20;92.60;;;;;;5109232;28;20024;-41
2021/06/09 08:41:31;;;;;;;13.07;11.80;;;23.20;92.60;;;;;;5106815;28;20016;-41
2021/06/09 08:43:59;;;;;;;12.60;11.40;;;23.20;92.40;;;;;;5108348;28;20016;-41
2021/06/09 08:46:25;;;;;;;13.70;12.35;;;23.30;92.40;;;;;;5109779;28;20038;-41
2021/06/09 08:48:54;;;;;;;10.85;9.85;;;23.30;92.20;;;;;;5108834;28;20016;-40
2021/06/09 08:51:20;;;;;;;11.27;10.18;;;23.30;92.20;;;;;;5108467;28;20031;-40
2021/06/09 08:53:49;;;;;;;19.13;16.92;;;23.30;92.10;;;;;;5108720;28;20076;-43
2021/06/09 08:56:16;;;;;;;15.82;14.18;;;23.40;92.00;;;;;;5107659;28;20491;-41
2021/06/09 08:58:42;;;;;;;15.38;13.77;;;23.50;91.90;;;;;;5108044;28;20028;-40
2021/06/09 09:01:10;;;;;;;17.17;15.48;;;23.50;91.90;;;;;;5109008;28;20119;-41
2021/06/09 09:03:40;;;;;;;14.57;13.18;;;23.50;91.80;;;;;;5108232;28;20074;-41
2021/06/09 09:06:06;;;;;;;12.95;11.75;;;23.60;91.80;;;;;;5108573;28;20035;-41
2021/06/09 09:08:32;;;;;;;13.13;11.82;;;23.60;91.70;;;;;;5109015;28;20419;-41
2021/06/09 09:11:01;;;;;;;12.60;11.38;;;23.70;91.50;;;;;;5107045;27;20019;-39
2021/06/09 09:13:27;;;;;;;11.23;10.10;;;23.70;91.30;;;;;;5108451;28;20451;-40
2021/06/09 09:15:53;;;;;;;11.40;10.30;;;23.80;91.10;;;;;;5108698;28;20486;-41
2021/06/09 09:18:19;;;;;;;10.32;9.32;;;23.80;91.10;;;;;;5108170;28;20016;-41
2021/06/09 09:20:47;;;;;;;11.65;10.48;;;23.80;90.80;;;;;;5108432;28;20047;-39
2021/06/09 09:23:31;;;;;;;10.52;9.63;;;23.80;90.80;;;;;;5107929;27;20103;-40
2021/06/09 09:26:19;;;;;;;12.40;11.30;;;23.80;90.80;;;;;;5108110;28;20054;-40
2021/06/09 09:28:45;;;;;;;12.20;11.10;;;23.80;90.70;;;;;;5108697;28;20052;-41
2021/06/09 09:31:14;;;;;;;10.80;9.80;;;23.80;90.70;;;;;;5108063;28;20028;-42
2021/06/09 09:33:40;;;;;;;13.82;12.43;;;23.90;90.70;;;;;;5107738;28;20053;-41
2021/06/09 09:36:21;;;;;;;10.30;9.35;;;23.90;90.50;;;;;;5108594;28;20028;-41
2021/06/09 09:38:47;;;;;;;9.93;9.02;;;23.90;90.50;;;;;;5107550;28;20378;-42
2021/06/09 09:41:17;;;;;;;10.52;9.55;;;23.90;90.30;;;;;;5107665;28;20164;-41
2021/06/09 09:43:57;;;;;;;11.43;10.25;;;23.90;90.00;;;;;;5105315;28;20080;-41
2021/06/09 09:46:31;;;;;;;11.27;10.18;;;24.00;90.00;;;;;;5104881;28;20054;-41
2021/06/09 09:49:09;;;;;;;11.50;10.40;;;24.00;89.70;;;;;;5107795;28;20602;-41
2021/06/09 09:52:01;;;;;;;10.38;9.38;;;24.00;89.70;;;;;;5097694;28;20027;-41
2021/06/09 09:54:32;;;;;;;11.27;10.10;;;24.10;89.60;;;;;;5100773;28;20034;-41
2021/06/09 09:56:59;;;;;;;15.32;13.93;;;24.20;89.10;;;;;;5107950;28;20026;-40
2021/06/09 09:59:27;;;;;;;11.25;10.07;;;24.30;88.30;;;;;;5108387;28;20032;-39
2021/06/09 10:01:55;;;;;;;10.52;9.52;;;24.30;88.20;;;;;;5108381;28;20041;-41
2021/06/09 10:04:24;;;;;;;12.23;11.02;;;24.40;88.30;;;;;;5107952;28;20026;-41
2021/06/09 10:06:51;;;;;;;12.10;11.00;;;24.60;87.80;;;;;;5105967;28;20104;-42
2021/06/09 10:09:22;;;;;;;9.90;8.98;;;24.70;87.00;;;;;;5107452;28;20027;-40
2021/06/09 10:11:51;;;;;;;10.50;9.50;;;24.90;87.00;;;;;;5104675;27;20035;-40
2021/06/09 10:14:24;;;;;;;8.93;8.13;;;25.10;86.10;;;;;;5105917;28;20216;-40
2021/06/09 10:17:22;;;;;;;9.48;8.68;;;25.20;86.10;;;;;;5107688;28;20019;-40
2021/06/09 10:19:50;;;;;;;8.45;7.65;;;25.30;85.20;;;;;;5094117;28;20295;-40
2021/06/09 10:22:19;;;;;;;9.88;8.07;;;25.30;84.70;;;;;;5107078;28;20115;-39
2021/06/09 10:24:51;;;;;;;8.88;8.07;;;25.30;84.20;;;;;;5107388;28;20024;-43
2021/06/09 10:27:19;;;;;;;10.93;9.88;;;25.50;83.40;;;;;;5107170;28;20035;-40
2021/06/09 10:29:45;;;;;;;8.45;7.65;;;25.60;82.70;;;;;;5106806;28;20024;-39
2021/06/09 10:32:17;;;;;;;8.02;7.25;;;25.70;82.70;;;;;;5107051;28;20099;-40
2021/06/09 10:34:44;;;;;;;8.73;7.93;;;25.70;82.30;;;;;;5107276;28;20035;-40
2021/06/09 10:37:10;;;;;;;8.68;7.78;;;25.70;79.90;;;;;;5106986;28;20042;-41
2021/06/09 10:39:39;;;;;;;10.35;6.80;;;25.70;77.40;;;;;;5107329;28;20102;-43
2021/06/09 10:42:08;;;;;;;10.43;9.00;;;25.60;78.20;;;;;;5106741;28;20051;-40
2021/06/09 10:44:36;;;;;;;9.27;7.20;;;25.60;77.50;;;;;;5086546;28;20036;-40
2021/06/09 10:47:09;;;;;;;8.27;7.20;;;25.70;77.60;;;;;;5102652;28;20056;-41
2021/06/09 10:49:38;;;;;;;10.65;9.13;;;25.70;78.00;;;;;;5108655;27;20035;-40
2021/06/09 10:52:05;;;;;;;9.32;8.43;;;25.90;77.50;;;;;;5106639;28;20054;-41
2021/06/09 10:54:31;;;;;;;6.60;6.00;;;25.80;76.60;;;;;;5107213;28;20023;-40
2021/06/09 10:56:58;;;;;;;7.57;6.88;;;25.70;77.40;;;;;;5106233;28;20043;-41
2021/06/09 10:59:31;;;;;;;8.65;7.85;;;25.70;78.60;;;;;;5107450;28;20093;-40
2021/06/09 11:02:13;;;;;;;8.05;7.25;;;25.70;78.00;;;;;;5107544;28;20463;-39
2021/06/09 11:04:47;;;;;;;7.97;7.13;;;25.70;78.50;;;;;;5106732;28;20082;-40
2021/06/09 11:07:27;;;;;;;8.52;7.65;;;25.80;78.70;;;;;;5106615;28;20085;-40
2021/06/09 11:09:53;;;;;;;8.63;7.82;;;25.80;78.00;;;;;;5106359;28;20486;-41
2021/06/09 11:12:24;;;;;;;7.47;6.78;;;25.80;77.80;;;;;;5107117;28;20019;-40
2021/06/09 11:15:01;;;;;;;6.38;5.80;;;25.80;78.00;;;;;;5106753;28;20119;-41
2021/06/09 11:17:37;;;;;;;6.60;5.47;;;25.90;77.80;;;;;;5106507;28;20081;-41
2021/06/09 11:20:11;;;;;;;6.10;5.60;;;25.90;78.10;;;;;;5109317;28;20442;-38
2021/06/09 11:22:46;;;;;;;5.50;5.00;;;26.10;78.20;;;;;;5111014;28;20065;-41
2021/06/09 11:25:24;;;;;;;7.43;6.70;;;26.20;77.80;;;;;;5110028;28;20114;-41
2021/06/09 11:27:58;;;;;;;8.93;7.28;;;26.30;76.60;;;;;;5110750;28;20028;-41
2021/06/09 11:30:23;;;;;;;8.02;7.25;;;26.40;76.40;;;;;;5110622;28;20043;-41
2021/06/09 11:32:51;;;;;;;6.05;5.47;;;26.50;74.70;;;;;;5108857;28;20047;-42
2021/06/09 11:35:20;;;;;;;6.15;5.65;;;26.50;75.30;;;;;;5110640;28;20475;-41
2021/06/09 11:38:12;;;;;;;5.53;5.03;;;26.50;75.30;;;;;;5110115;28;20375;-42
2021/06/09 11:41:09;;;;;;;5.40;4.90;;;26.60;75.30;;;;;;5110339;28;20088;-40
2021/06/09 11:43:39;;;;;;;5.80;5.30;;;26.60;75.00;;;;;;5110475;28;20420;-43
2021/06/09 11:46:32;;;;;;;7.32;6.60;;;26.70;74.60;;;;;;5109626;28;20123;-41
2021/06/09 11:49:03;;;;;;;6.15;5.65;;;26.70;73.40;;;;;;5107182;28;20479;-40
2021/06/09 11:51:34;;;;;;;7.70;6.70;;;26.70;73.80;;;;;;5110662;28;20019;-39
2021/06/09 11:54:23;;;;;;;7.80;5.95;;;26.70;72.80;;;;;;5109530;28;20296;-43
2021/06/09 11:57:18;;;;;;;5.00;4.50;;;26.70;71.90;;;;;;5109992;28;20054;-42
2021/06/09 11:59:45;;;;;;;4.43;4.05;;;26.70;72.40;;;;;;5101655;28;20061;-41
2021/06/09 12:02:23;;;;;;;7.03;5.20;;;26.70;71.70;;;;;;5090096;28;20035;-43
2021/06/09 12:05:02;;;;;;;4.53;4.10;;;26.60;71.70;;;;;;5105454;28;20100;-40
2021/06/09 12:07:31;;;;;;;6.60;5.20;;;26.50;71.30;;;;;;5089217;28;20059;-41
2021/06/09 12:10:03;;;;;;;4.50;4.10;;;26.50;71.20;;;;;;5104827;28;20011;-40
2021/06/09 12:12:31;;;;;;;5.45;4.93;;;26.50;71.60;;;;;;5110091;28;20039;-45
2021/06/09 12:15:06;;;;;;;5.80;5.13;;;26.60;71.30;;;;;;5108770;28;20018;-41
2021/06/09 12:17:35;;;;;;;7.43;6.20;;;26.60;70.00;;;;;;5110935;27;20035;-43
2021/06/09 12:20:07;;;;;;;6.25;5.13;;;26.70;69.20;;;;;;5108409;28;20167;-38
2021/06/09 12:22:33;;;;;;;6.57;5.97;;;26.70;69.30;;;;;;5109742;28;20426;-40
2021/06/09 12:25:08;;;;;;;5.97;5.38;;;26.70;68.50;;;;;;5108509;28;20027;-41
2021/06/09 12:27:35;;;;;;;6.95;5.80;;;26.80;69.20;;;;;;5122529;27;20029;-41
2021/06/09 12:30:04;;;;;;;5.53;4.22;;;26.80;68.70;;;;;;5111601;27;20049;-41
2021/06/09 12:32:32;;;;;;;5.35;4.90;;;26.80;68.80;;;;;;5111118;27;20020;-40
2021/06/09 12:35:09;;;;;;;6.47;5.65;;;26.90;69.10;;;;;;5108548;28;20035;-40
2021/06/09 12:37:38;;;;;;;5.70;4.60;;;26.90;68.90;;;;;;5110238;28;20055;-41
2021/06/09 12:40:17;;;;;;;5.90;5.30;;;27.00;69.10;;;;;;5109052;28;20030;-40
2021/06/09 12:42:52;;;;;;;4.80;4.40;;;27.00;68.70;;;;;;5108647;28;20030;-40
2021/06/09 12:45:19;;;;;;;6.57;5.97;;;27.00;68.10;;;;;;5108502;28;20065;-39
2021/06/09 12:47:45;;;;;;;4.40;4.00;;;27.00;67.20;;;;;;5108794;28;20023;-41
2021/06/09 12:50:19;;;;;;;4.63;4.22;;;27.00;67.50;;;;;;5108353;28;20111;-41
2021/06/09 12:52:51;;;;;;;5.47;5.05;;;27.10;67.80;;;;;;5109218;27;20031;-42